createdAt,value
2022-09-27T00:00:07.801Z,6.75
2022-09-27T00:02:34.380Z,12.07
2022-09-27T00:05:00.986Z,11.00
2022-09-27T00:07:27.411Z,8.07
2022-09-27T00:09:53.871Z,11.02
2022-09-27T00:12:20.337Z,6.13
2022-09-27T00:14:46.785Z,12.73
2022-09-27T00:17:13.358Z,6.97
2022-09-27T00:19:39.781Z,9.43
2022-09-27T00:22:06.250Z,9.18
2022-09-27T00:24:32.924Z,5.90
2022-09-27T00:26:59.408Z,7.25
2022-09-27T00:29:25.999Z,7.00
2022-09-27T00:31:52.615Z,7.25
2022-09-27T00:34:21.621Z,4.93
2022-09-27T00:36:48.865Z,9.30
2022-09-27T00:39:15.859Z,8.75
2022-09-27T00:41:42.538Z,5.60
2022-09-27T00:44:33.628Z,4.45
2022-09-27T00:47:04.498Z,4.65
2022-09-27T00:49:37.168Z,4.20
2022-09-27T00:52:16.525Z,8.50
2022-09-27T00:54:46.193Z,8.55
2022-09-27T00:57:12.891Z,5.88
2022-09-27T00:59:47.731Z,7.65
2022-09-27T01:02:14.823Z,5.45
2022-09-27T01:04:43.733Z,7.18
2022-09-27T01:07:16.406Z,7.95
2022-09-27T01:09:43.359Z,8.77
2022-09-27T01:12:44.059Z,6.05
2022-09-27T01:15:36.759Z,6.00
2022-09-27T01:18:09.269Z,6.35
2022-09-27T01:20:47.556Z,4.97
2022-09-27T01:23:39.364Z,5.40
2022-09-27T01:26:40.147Z,6.90
2022-09-27T01:29:20.046Z,6.20
2022-09-27T01:32:12.193Z,6.22
2022-09-27T01:34:50.947Z,7.50
2022-09-27T01:37:36.038Z,6.22
2022-09-27T01:40:14.683Z,7.80
2022-09-27T01:42:54.084Z,12.90
2022-09-27T01:45:54.858Z,7.30
2022-09-27T01:48:31.428Z,9.40
2022-09-27T01:51:09.694Z,8.07
2022-09-27T01:53:41.000Z,6.93
2022-09-27T01:56:16.482Z,7.32
2022-09-27T01:58:53.398Z,5.03
2022-09-27T02:01:22.442Z,6.93
2022-09-27T02:03:51.618Z,4.38
2022-09-27T02:06:26.241Z,7.03
2022-09-27T02:09:05.903Z,4.88
2022-09-27T02:11:34.546Z,3.53
2022-09-27T02:14:16.809Z,6.80
2022-09-27T02:16:52.098Z,5.38
2022-09-27T02:19:49.004Z,5.18
2022-09-27T02:22:46.270Z,4.60
2022-09-27T02:25:45.104Z,7.03
2022-09-27T02:28:25.349Z,4.95
2022-09-27T02:30:52.240Z,3.42
2022-09-27T02:33:21.954Z,10.40
2022-09-27T02:35:48.403Z,6.18
2022-09-27T02:38:16.141Z,3.70
2022-09-27T02:40:45.354Z,6.65
2022-09-27T02:43:14.363Z,5.80
2022-09-27T02:45:49.679Z,5.43
2022-09-27T02:49:01.262Z,5.78
2022-09-27T02:51:51.865Z,4.72
2022-09-27T02:54:30.549Z,6.65
2022-09-27T02:57:37.719Z,3.42
2022-09-27T03:00:16.513Z,3.95
2022-09-27T03:03:09.560Z,6.35
2022-09-27T03:06:04.793Z,6.68
2022-09-27T03:08:31.427Z,3.70
2022-09-27T03:10:57.922Z,4.75
2022-09-27T03:13:24.674Z,6.07
2022-09-27T03:15:51.214Z,3.67
2022-09-27T03:18:17.796Z,6.65
2022-09-27T03:20:44.340Z,9.23
2022-09-27T03:23:10.876Z,5.82
2022-09-27T03:25:37.505Z,11.30
2022-09-27T03:28:04.263Z,6.30
2022-09-27T03:30:30.770Z,5.03
2022-09-27T03:32:57.413Z,4.85
2022-09-27T03:35:23.821Z,5.40
2022-09-27T03:37:50.323Z,6.65
2022-09-27T03:40:17.349Z,4.28
2022-09-27T03:42:48.853Z,9.98
2022-09-27T03:45:16.446Z,6.50
2022-09-27T03:47:43.087Z,6.03
2022-09-27T03:50:11.398Z,5.40
2022-09-27T03:52:38.418Z,6.75
2022-09-27T03:55:05.300Z,5.95
2022-09-27T03:57:31.983Z,7.57
2022-09-27T03:59:59.868Z,6.30
2022-09-27T04:02:27.704Z,5.78
2022-09-27T04:04:54.249Z,8.70
2022-09-27T04:07:20.798Z,7.80
2022-09-27T04:09:47.315Z,6.53
2022-09-27T04:12:13.823Z,8.30
2022-09-27T04:14:40.327Z,7.82
2022-09-27T04:17:07.965Z,7.43
2022-09-27T04:19:34.430Z,6.65
2022-09-27T04:22:01.527Z,7.32
2022-09-27T04:24:28.012Z,9.40
2022-09-27T04:26:54.469Z,6.88
2022-09-27T04:29:20.993Z,5.38
2022-09-27T04:31:47.690Z,10.07
2022-09-27T04:34:14.415Z,4.50
2022-09-27T04:36:40.834Z,5.32
2022-09-27T04:39:08.982Z,3.28
2022-09-27T04:41:35.951Z,3.25
2022-09-27T04:44:03.065Z,5.10
2022-09-27T04:46:31.457Z,5.15
2022-09-27T04:49:01.621Z,7.78
2022-09-27T04:51:28.422Z,7.18
2022-09-27T04:53:57.499Z,8.23
2022-09-27T04:56:24.155Z,8.02
2022-09-27T04:58:50.549Z,5.88
2022-09-27T05:01:17.058Z,5.97
2022-09-27T05:03:43.864Z,8.38
2022-09-27T05:06:10.580Z,5.80
2022-09-27T05:08:37.060Z,5.13
2022-09-27T05:11:03.857Z,6.18
2022-09-27T05:13:30.371Z,5.85
2022-09-27T05:16:03.119Z,10.23
2022-09-27T05:18:29.782Z,7.40
2022-09-27T05:20:59.394Z,5.47
2022-09-27T05:23:26.668Z,6.07
2022-09-27T05:25:55.680Z,5.10
2022-09-27T05:28:24.213Z,4.35
2022-09-27T05:30:50.726Z,5.40
2022-09-27T05:33:17.954Z,3.72
2022-09-27T05:35:52.101Z,5.07
2022-09-27T05:38:20.110Z,3.35
2022-09-27T05:40:48.448Z,3.42
2022-09-27T05:43:16.000Z,6.32
2022-09-27T05:45:44.127Z,5.50
2022-09-27T05:48:12.768Z,7.07
2022-09-27T05:50:39.277Z,3.80
2022-09-27T05:53:06.074Z,7.93
2022-09-27T05:55:32.637Z,3.65
2022-09-27T05:58:01.728Z,3.92
2022-09-27T06:00:29.241Z,4.65
2022-09-27T06:02:58.828Z,6.90
2022-09-27T06:05:27.785Z,7.03
2022-09-27T06:08:01.717Z,6.68
2022-09-27T06:10:30.023Z,3.90
2022-09-27T06:13:11.143Z,4.72
2022-09-27T06:15:39.826Z,3.78
2022-09-27T06:18:09.850Z,7.65
2022-09-27T06:20:39.031Z,5.07
2022-09-27T06:23:07.380Z,3.15
2022-09-27T06:25:34.966Z,7.38
2022-09-27T06:28:02.502Z,3.78
2022-09-27T06:30:29.427Z,5.03
2022-09-27T06:33:00.479Z,5.22
2022-09-27T06:35:28.972Z,2.40
2022-09-27T06:37:56.877Z,2.70
2022-09-27T06:40:27.115Z,5.30
2022-09-27T06:42:54.209Z,5.00
2022-09-27T06:45:20.685Z,3.45
2022-09-27T06:47:47.244Z,6.30
2022-09-27T06:50:14.404Z,4.35
2022-09-27T06:52:48.917Z,4.35
2022-09-27T06:55:16.277Z,2.00
2022-09-27T06:58:01.873Z,5.10
2022-09-27T07:03:00.893Z,2.25
2022-09-27T07:05:31.095Z,7.10
2022-09-27T07:07:58.669Z,2.60
2022-09-27T07:10:27.798Z,3.03
2022-09-27T07:12:54.901Z,9.73
2022-09-27T07:15:22.345Z,7.40
2022-09-27T07:17:56.627Z,3.05
2022-09-27T07:20:23.187Z,6.10
2022-09-27T07:22:49.725Z,3.95
2022-09-27T07:25:16.432Z,3.10
2022-09-27T07:27:43.011Z,5.97
2022-09-27T07:30:11.833Z,2.95
2022-09-27T07:32:38.718Z,3.38
2022-09-27T07:35:06.798Z,2.08
2022-09-27T07:37:34.994Z,2.55
2022-09-27T07:40:03.019Z,3.47
2022-09-27T07:42:29.455Z,3.53
2022-09-27T07:44:56.058Z,2.28
2022-09-27T07:47:27.412Z,2.25
2022-09-27T07:49:53.984Z,3.83
2022-09-27T07:52:20.655Z,1.92
2022-09-27T07:54:47.924Z,4.28
2022-09-27T07:57:15.607Z,2.03
2022-09-27T07:59:42.440Z,3.42
2022-09-27T08:02:16.225Z,2.78
2022-09-27T08:04:52.761Z,3.17
2022-09-27T08:07:19.168Z,2.38
2022-09-27T08:09:45.756Z,1.25
2022-09-27T08:12:12.280Z,2.83
2022-09-27T08:14:44.009Z,2.67
2022-09-27T08:17:14.257Z,5.18
2022-09-27T08:19:40.997Z,3.15
2022-09-27T08:22:08.422Z,2.22
2022-09-27T08:24:35.134Z,2.70
2022-09-27T08:27:03.884Z,2.22
2022-09-27T08:29:32.616Z,1.17
2022-09-27T08:31:59.122Z,1.83
2022-09-27T08:34:25.783Z,2.22
2022-09-27T08:36:53.474Z,1.63
2022-09-27T08:39:20.408Z,4.43
2022-09-27T08:41:55.170Z,3.13
2022-09-27T08:44:33.267Z,3.55
2022-09-27T08:47:33.078Z,3.70
2022-09-27T08:50:06.889Z,1.60
2022-09-27T08:52:41.234Z,4.65
2022-09-27T08:55:22.173Z,2.87
2022-09-27T08:57:57.482Z,2.30
2022-09-27T09:00:24.726Z,1.63
2022-09-27T09:02:51.485Z,1.20
2022-09-27T09:05:23.644Z,2.25
2022-09-27T09:08:08.570Z,3.00
2022-09-27T09:11:07.631Z,1.13
2022-09-27T09:14:11.449Z,3.13
2022-09-27T09:17:15.437Z,1.67
2022-09-27T09:20:00.530Z,2.83
2022-09-27T09:22:40.861Z,5.65
2022-09-27T09:25:58.162Z,2.58
2022-09-27T09:29:03.847Z,4.15
2022-09-27T09:31:44.826Z,1.55
2022-09-27T09:34:17.367Z,2.58
2022-09-27T09:36:49.049Z,0.60
2022-09-27T09:39:21.939Z,3.00
2022-09-27T09:42:11.410Z,0.65
2022-09-27T09:45:10.130Z,0.93
2022-09-27T09:47:39.972Z,0.95
2022-09-27T09:50:19.079Z,1.63
2022-09-27T09:52:54.552Z,1.13
2022-09-27T09:55:28.698Z,1.48
2022-09-27T09:58:22.017Z,0.80
2022-09-27T10:00:51.443Z,2.78
2022-09-27T10:03:18.122Z,3.15
2022-09-27T10:05:47.580Z,2.58
2022-09-27T10:08:22.440Z,0.65
2022-09-27T10:10:51.446Z,1.13
2022-09-27T10:13:20.495Z,4.50
2022-09-27T10:16:07.404Z,1.30
2022-09-27T10:18:37.407Z,2.38
2022-09-27T10:21:13.618Z,1.60
2022-09-27T10:24:05.905Z,1.23
2022-09-27T10:26:33.265Z,1.60
2022-09-27T10:29:16.385Z,1.60
2022-09-27T10:31:47.625Z,1.80
2022-09-27T10:34:40.107Z,2.58
2022-09-27T10:37:18.023Z,1.98
2022-09-27T10:39:46.448Z,2.25
2022-09-27T10:42:32.418Z,3.15
2022-09-27T10:44:59.285Z,1.33
2022-09-27T10:47:27.046Z,2.00
2022-09-27T10:50:04.199Z,1.90
2022-09-27T10:52:30.890Z,1.77
2022-09-27T10:55:00.737Z,2.17
2022-09-27T10:57:31.210Z,2.60
2022-09-27T11:00:06.616Z,3.20
2022-09-27T11:02:36.872Z,2.78
2022-09-27T11:05:06.154Z,1.40
2022-09-27T11:07:32.659Z,3.95
2022-09-27T11:10:03.020Z,1.95
2022-09-27T11:12:32.022Z,6.57
2022-09-27T11:15:02.902Z,1.80
2022-09-27T11:17:45.141Z,2.42
2022-09-27T11:20:20.844Z,2.08
2022-09-27T11:23:06.161Z,4.25
2022-09-27T11:26:00.510Z,3.50
2022-09-27T11:28:45.288Z,4.45
2022-09-27T11:31:43.651Z,2.25
2022-09-27T11:34:16.203Z,1.48
2022-09-27T11:36:53.670Z,2.58
2022-09-27T11:39:23.815Z,6.88
2022-09-27T11:42:23.672Z,2.53
2022-09-27T11:45:27.777Z,2.97
2022-09-27T11:48:14.132Z,2.42
2022-09-27T11:50:56.507Z,2.45
2022-09-27T11:53:50.534Z,2.25
2022-09-27T11:56:25.968Z,1.73
2022-09-27T11:59:09.919Z,4.50
2022-09-27T12:01:59.760Z,2.05
2022-09-27T12:04:42.448Z,4.15
2022-09-27T12:07:40.011Z,1.02
2022-09-27T12:10:14.277Z,5.32
2022-09-27T12:12:45.259Z,3.60
2022-09-27T12:15:20.148Z,4.53
2022-09-27T12:17:50.187Z,2.40
2022-09-27T12:20:23.353Z,1.70
2022-09-27T12:23:01.107Z,2.13
2022-09-27T12:25:31.986Z,5.28
2022-09-27T12:28:08.723Z,2.45
2022-09-27T12:30:42.886Z,3.10
2022-09-27T12:33:26.066Z,4.45
2022-09-27T12:35:55.495Z,2.40
2022-09-27T12:38:41.717Z,2.03
2022-09-27T12:41:12.111Z,7.18
2022-09-27T12:43:45.915Z,1.63
2022-09-27T12:46:30.054Z,4.70
2022-09-27T12:49:11.741Z,3.90
2022-09-27T12:51:44.076Z,2.08
2022-09-27T12:54:13.507Z,3.90
2022-09-27T12:57:08.574Z,2.80
2022-09-27T13:00:02.849Z,3.90
2022-09-27T13:03:15.296Z,4.15
2022-09-27T13:06:04.942Z,2.38
2022-09-27T13:08:31.493Z,7.20
2022-09-27T13:11:35.720Z,1.70
2022-09-27T13:14:05.138Z,2.55
2022-09-27T13:16:42.290Z,4.25
2022-09-27T13:19:34.329Z,3.25
2022-09-27T13:22:00.993Z,2.95
2022-09-27T13:24:40.560Z,1.92
2022-09-27T13:27:22.223Z,1.98
2022-09-27T13:29:48.953Z,4.88
2022-09-27T13:32:18.195Z,2.70
2022-09-27T13:34:56.601Z,2.45
2022-09-27T13:37:28.981Z,3.28
2022-09-27T13:40:24.989Z,3.30
2022-09-27T13:45:25.200Z,2.53
2022-09-27T13:47:54.132Z,2.30
2022-09-27T13:50:35.246Z,2.85
2022-09-27T13:53:07.173Z,4.55
2022-09-27T13:55:44.294Z,6.43
2022-09-27T13:58:19.621Z,2.90
2022-09-27T14:00:50.672Z,3.78
2022-09-27T14:03:53.263Z,3.15
2022-09-27T14:06:28.818Z,2.95
2022-09-27T14:09:02.809Z,2.40
2022-09-27T14:11:40.308Z,3.67
2022-09-27T14:14:16.019Z,2.78
2022-09-27T14:16:47.967Z,2.45
2022-09-27T14:19:21.267Z,2.17
2022-09-27T14:22:06.798Z,2.25
2022-09-27T14:24:45.964Z,3.33
2022-09-27T14:27:17.367Z,2.00
2022-09-27T14:29:48.633Z,9.10
2022-09-27T14:32:20.964Z,3.85
2022-09-27T14:35:31.650Z,6.53
2022-09-27T14:38:07.497Z,3.00
2022-09-27T14:40:58.347Z,2.65
2022-09-27T14:43:25.749Z,6.10
2022-09-27T14:45:57.270Z,3.13
2022-09-27T14:48:28.004Z,2.08
2022-09-27T14:50:59.188Z,4.38
2022-09-27T14:53:34.342Z,3.42
2022-09-27T14:56:02.644Z,3.10
2022-09-27T14:58:46.773Z,1.58
2022-09-27T15:01:16.428Z,3.80
2022-09-27T15:03:45.092Z,2.03
2022-09-27T15:06:12.058Z,3.83
2022-09-27T15:08:39.551Z,2.83
2022-09-27T15:11:07.773Z,2.38
2022-09-27T15:13:37.381Z,1.73
2022-09-27T15:16:10.389Z,1.23
2022-09-27T15:18:43.090Z,1.42
2022-09-27T15:21:15.112Z,1.45
2022-09-27T15:23:45.386Z,3.75
2022-09-27T15:26:15.684Z,2.80
2022-09-27T15:28:44.886Z,3.28
2022-09-27T15:31:13.456Z,3.42
2022-09-27T15:33:40.703Z,2.95
2022-09-27T15:36:10.792Z,3.97
2022-09-27T15:38:48.254Z,3.33
2022-09-27T15:41:20.110Z,1.13
2022-09-27T15:43:48.839Z,3.45
2022-09-27T15:46:15.215Z,3.25
2022-09-27T15:48:42.003Z,5.82
2022-09-27T15:51:38.363Z,2.45
2022-09-27T15:54:04.740Z,3.30
2022-09-27T15:56:31.315Z,5.25
2022-09-27T15:58:59.277Z,3.58
2022-09-27T16:01:26.595Z,3.55
2022-09-27T16:03:53.740Z,2.92
2022-09-27T16:06:28.379Z,5.50
2022-09-27T16:08:54.771Z,3.65
2022-09-27T16:11:21.172Z,1.85
2022-09-27T16:13:47.905Z,2.55
2022-09-27T16:16:19.768Z,7.18
2022-09-27T16:18:46.829Z,3.63
2022-09-27T16:21:13.572Z,3.10
2022-09-27T16:23:40.027Z,2.13
2022-09-27T16:26:06.850Z,2.15
2022-09-27T16:28:33.967Z,1.35
2022-09-27T16:31:04.002Z,4.60
2022-09-27T16:33:32.642Z,2.30
2022-09-27T16:36:03.464Z,2.30
2022-09-27T16:38:30.242Z,6.85
2022-09-27T16:41:02.067Z,1.80
2022-09-27T16:43:29.961Z,2.03
2022-09-27T16:46:03.989Z,2.53
2022-09-27T16:48:30.351Z,2.35
2022-09-27T16:51:21.865Z,4.50
2022-09-27T16:53:48.427Z,2.67
2022-09-27T16:56:14.787Z,3.50
2022-09-27T16:58:41.225Z,2.17
2022-09-27T17:01:07.941Z,2.05
2022-09-27T17:03:34.358Z,2.90
2022-09-27T17:06:03.972Z,2.85
2022-09-27T17:08:30.839Z,11.25
2022-09-27T17:10:57.309Z,4.40
2022-09-27T17:13:23.959Z,4.38
2022-09-27T17:15:50.329Z,2.50
2022-09-27T17:18:16.849Z,3.05
2022-09-27T17:20:44.116Z,2.78
2022-09-27T17:23:10.628Z,5.18
2022-09-27T17:25:38.431Z,4.10
2022-09-27T17:28:05.004Z,5.82
2022-09-27T17:30:31.618Z,13.52
2022-09-27T17:32:58.187Z,6.15
2022-09-27T17:35:24.657Z,8.07
2022-09-27T17:37:51.308Z,5.43
2022-09-27T17:40:17.932Z,5.18
2022-09-27T17:42:44.379Z,4.15
2022-09-27T17:45:10.879Z,3.25
2022-09-27T17:47:55.880Z,2.55
2022-09-27T17:50:24.904Z,4.45
2022-09-27T17:52:53.229Z,3.30
2022-09-27T17:55:21.634Z,2.58
2022-09-27T17:57:48.755Z,10.75
2022-09-27T18:00:15.838Z,6.00
2022-09-27T18:02:42.776Z,6.50
2022-09-27T18:05:09.771Z,3.10
2022-09-27T18:07:37.292Z,3.95
2022-09-27T18:10:04.464Z,3.55
2022-09-27T18:12:34.801Z,8.45
2022-09-27T18:15:02.143Z,7.07
2022-09-27T18:17:28.812Z,6.05
2022-09-27T18:19:56.881Z,5.72
2022-09-27T18:22:26.428Z,5.68
2022-09-27T18:24:52.748Z,5.70
2022-09-27T18:27:20.050Z,11.55
2022-09-27T18:29:46.492Z,6.25
2022-09-27T18:32:12.864Z,12.02
2022-09-27T18:34:40.178Z,5.47
2022-09-27T18:37:06.512Z,5.22
2022-09-27T18:39:32.855Z,15.57
2022-09-27T18:41:59.330Z,4.82
2022-09-27T18:44:25.738Z,4.68
2022-09-27T18:46:52.277Z,8.07
2022-09-27T18:49:21.179Z,7.20
2022-09-27T18:51:51.996Z,4.15
2022-09-27T18:54:22.517Z,5.25
2022-09-27T18:56:50.642Z,5.53
2022-09-27T18:59:17.465Z,3.50
2022-09-27T19:01:45.715Z,4.07
2022-09-27T19:04:19.274Z,5.90
2022-09-27T19:06:48.054Z,6.35
2022-09-27T19:09:14.498Z,6.30
2022-09-27T19:11:40.934Z,7.80
2022-09-27T19:14:07.561Z,7.15
2022-09-27T19:16:34.086Z,3.50
2022-09-27T19:19:00.616Z,4.85
2022-09-27T19:21:29.412Z,5.07
2022-09-27T19:23:56.911Z,6.03
2022-09-27T19:26:25.779Z,3.05
2022-09-27T19:28:52.757Z,5.80
2022-09-27T19:31:22.073Z,5.75
2022-09-27T19:33:48.597Z,7.72
2022-09-27T19:36:16.490Z,3.67
2022-09-27T19:38:43.152Z,3.80
2022-09-27T19:41:12.017Z,4.28
2022-09-27T19:43:38.693Z,5.63
2022-09-27T19:46:11.096Z,5.53
2022-09-27T19:48:40.965Z,4.95
2022-09-27T19:51:09.600Z,6.18
2022-09-27T19:53:36.059Z,7.03
2022-09-27T19:56:05.040Z,3.15
2022-09-27T19:58:33.780Z,5.20
2022-09-27T20:01:21.503Z,4.78
2022-09-27T20:03:49.895Z,6.22
2022-09-27T20:06:18.791Z,5.40
2022-09-27T20:08:47.664Z,9.43
2022-09-27T20:11:16.843Z,5.70
2022-09-27T20:13:43.617Z,8.57
2022-09-27T20:16:15.992Z,10.30
2022-09-27T20:18:45.465Z,8.63
2022-09-27T20:21:12.683Z,6.15
2022-09-27T20:23:39.132Z,4.88
2022-09-27T20:26:11.631Z,7.05
2022-09-27T20:28:43.627Z,7.75
2022-09-27T20:31:11.972Z,11.95
2022-09-27T20:33:41.386Z,47.20
2022-09-27T20:36:09.500Z,29.63
2022-09-27T20:38:35.888Z,24.67
2022-09-27T20:41:02.326Z,40.58
2022-09-27T20:43:28.651Z,29.63
2022-09-27T20:46:00.220Z,29.60
2022-09-27T20:48:26.555Z,38.67
2022-09-27T20:51:04.425Z,25.20
2022-09-27T20:53:31.709Z,18.65
2022-09-27T20:55:59.391Z,26.95
2022-09-27T20:58:26.803Z,35.50
2022-09-27T21:00:53.215Z,13.48
2022-09-27T21:03:21.899Z,8.25
2022-09-27T21:05:58.790Z,15.68
2022-09-27T21:08:25.427Z,28.20
2022-09-27T21:10:53.743Z,18.45
2022-09-27T21:13:20.771Z,14.18
2022-09-27T21:15:47.810Z,17.38
2022-09-27T21:18:14.252Z,18.35
2022-09-27T21:20:40.631Z,19.10
2022-09-27T21:23:07.114Z,23.23
2022-09-27T21:25:33.447Z,53.00
2022-09-27T21:27:59.924Z,26.98
2022-09-27T21:30:26.402Z,21.30
2022-09-27T21:32:54.827Z,16.08
2022-09-27T21:35:22.143Z,10.02
2022-09-27T21:37:48.631Z,7.35
2022-09-27T21:40:15.999Z,6.32
2022-09-27T21:42:42.450Z,5.28
2022-09-27T21:45:09.378Z,6.15
2022-09-27T21:47:35.724Z,4.03
2022-09-27T21:50:02.081Z,9.05
2022-09-27T21:52:28.424Z,7.50
2022-09-27T21:54:54.779Z,3.83
2022-09-27T21:57:21.222Z,8.55
2022-09-27T21:59:47.550Z,8.45
2022-09-27T22:02:13.976Z,8.10
2022-09-27T22:04:40.391Z,7.28
2022-09-27T22:07:06.774Z,6.30
2022-09-27T22:09:33.151Z,8.15
2022-09-27T22:11:59.582Z,15.60
2022-09-27T22:14:25.983Z,8.25
2022-09-27T22:16:52.314Z,5.32
2022-09-27T22:19:18.970Z,4.80
2022-09-27T22:21:45.537Z,10.30
2022-09-27T22:24:14.520Z,4.15
2022-09-27T22:26:42.249Z,4.32
2022-09-27T22:29:08.928Z,5.95
2022-09-27T22:31:35.402Z,6.55
2022-09-27T22:34:04.525Z,5.47
2022-09-27T22:36:32.180Z,11.05
2022-09-27T22:38:58.666Z,3.70
2022-09-27T22:41:25.550Z,4.43
2022-09-27T22:43:54.810Z,6.80
2022-09-27T22:46:21.374Z,5.22
2022-09-27T22:48:49.539Z,6.25
2022-09-27T22:51:15.963Z,10.93
2022-09-27T22:53:43.009Z,12.82
2022-09-27T22:56:19.286Z,11.80
2022-09-27T22:58:47.524Z,7.90
2022-09-27T23:01:19.413Z,13.82
2022-09-27T23:03:46.771Z,13.70
2022-09-27T23:06:15.231Z,10.50
2022-09-27T23:08:42.422Z,10.02
2022-09-27T23:11:11.285Z,12.23
2022-09-27T23:13:40.635Z,6.43
2022-09-27T23:16:10.582Z,12.85
2022-09-27T23:18:38.095Z,8.07
2022-09-27T23:21:08.181Z,4.30
2022-09-27T23:23:36.592Z,7.70
2022-09-27T23:26:05.815Z,4.78
2022-09-27T23:28:33.328Z,5.90
2022-09-27T23:31:08.697Z,7.70
2022-09-27T23:33:36.937Z,7.10
2022-09-27T23:36:03.872Z,8.18
2022-09-27T23:38:31.634Z,8.40
2022-09-27T23:40:59.167Z,5.97
2022-09-27T23:43:26.121Z,7.53
2022-09-27T23:45:57.156Z,9.15
2022-09-27T23:48:24.840Z,4.85
2022-09-27T23:50:52.146Z,5.90
2022-09-27T23:53:19.859Z,4.30
2022-09-27T23:55:46.316Z,4.45
2022-09-27T23:58:12.880Z,6.28
